sensor_id;sensor_type;location;lat;lon;timestamp;temperature;humidity
21734;DHT22;11029;47.820;10.534;2023-01-04T00:00:47;2.10;85.50
21734;DHT22;11029;47.820;10.534;2023-01-04T00:03:14;2.20;85.20
21734;DHT22;11029;47.820;10.534;2023-01-04T00:05:41;2.20;85.30
21734;DHT22;11029;47.820;10.534;2023-01-04T00:08:08;2.20;84.70
21734;DHT22;11029;47.820;10.534;2023-01-04T00:10:35;2.20;83.70
21734;DHT22;11029;47.820;10.534;2023-01-04T00:13:01;2.20;83.40
21734;DHT22;11029;47.820;10.534;2023-01-04T00:15:28;2.10;83.00
21734;DHT22;11029;47.820;10.534;2023-01-04T00:17:55;1.90;82.70
21734;DHT22;11029;47.820;10.534;2023-01-04T00:20:21;1.90;83.10
21734;DHT22;11029;47.820;10.534;2023-01-04T00:22:48;1.80;82.50
21734;DHT22;11029;47.820;10.534;2023-01-04T00:25:15;1.80;82.80
21734;DHT22;11029;47.820;10.534;2023-01-04T00:27:41;1.90;82.50
21734;DHT22;11029;47.820;10.534;2023-01-04T00:30:08;1.90;82.40
21734;DHT22;11029;47.820;10.534;2023-01-04T00:32:35;1.90;82.50
21734;DHT22;11029;47.820;10.534;2023-01-04T00:35:02;1.80;81.50
21734;DHT22;11029;47.820;10.534;2023-01-04T00:37:30;1.80;81.90
21734;DHT22;11029;47.820;10.534;2023-01-04T00:39:56;1.80;82.40
21734;DHT22;11029;47.820;10.534;2023-01-04T00:42:23;1.80;82.30
21734;DHT22;11029;47.820;10.534;2023-01-04T00:44:50;1.80;82.40
21734;DHT22;11029;47.820;10.534;2023-01-04T00:47:16;1.90;82.70
21734;DHT22;11029;47.820;10.534;2023-01-04T00:49:43;1.90;82.70
21734;DHT22;11029;47.820;10.534;2023-01-04T00:52:10;2.00;83.70
21734;DHT22;11029;47.820;10.534;2023-01-04T00:54:36;2.20;84.00
21734;DHT22;11029;47.820;10.534;2023-01-04T00:57:03;2.30;84.80
21734;DHT22;11029;47.820;10.534;2023-01-04T00:59:30;2.40;85.10
21734;DHT22;11029;47.820;10.534;2023-01-04T01:01:57;2.50;85.10
21734;DHT22;11029;47.820;10.534;2023-01-04T01:04:24;2.60;84.10
21734;DHT22;11029;47.820;10.534;2023-01-04T01:06:51;2.60;83.50
21734;DHT22;11029;47.820;10.534;2023-01-04T01:09:18;2.30;81.90
21734;DHT22;11029;47.820;10.534;2023-01-04T01:11:48;2.20;82.80
21734;DHT22;11029;47.820;10.534;2023-01-04T01:14:18;2.10;83.10
21734;DHT22;11029;47.820;10.534;2023-01-04T01:16:45;2.10;83.50
21734;DHT22;11029;47.820;10.534;2023-01-04T01:19:28;2.20;84.10
21734;DHT22;11029;47.820;10.534;2023-01-04T01:21:55;2.20;84.60
21734;DHT22;11029;47.820;10.534;2023-01-04T01:24:23;2.30;84.20
21734;DHT22;11029;47.820;10.534;2023-01-04T01:26:49;2.30;84.30
21734;DHT22;11029;47.820;10.534;2023-01-04T01:29:16;2.40;84.50
21734;DHT22;11029;47.820;10.534;2023-01-04T01:31:43;2.50;84.50
21734;DHT22;11029;47.820;10.534;2023-01-04T01:34:10;2.60;83.50
21734;DHT22;11029;47.820;10.534;2023-01-04T01:36:36;2.50;83.30
21734;DHT22;11029;47.820;10.534;2023-01-04T01:39:04;2.50;83.20
21734;DHT22;11029;47.820;10.534;2023-01-04T01:41:33;2.60;84.10
21734;DHT22;11029;47.820;10.534;2023-01-04T01:46:48;2.50;82.20
21734;DHT22;11029;47.820;10.534;2023-01-04T01:49:34;2.30;82.90
21734;DHT22;11029;47.820;10.534;2023-01-04T01:52:06;2.30;82.90
21734;DHT22;11029;47.820;10.534;2023-01-04T01:54:38;2.30;83.80
21734;DHT22;11029;47.820;10.534;2023-01-04T01:57:08;2.20;84.40
21734;DHT22;11029;47.820;10.534;2023-01-04T01:59:38;2.20;85.40
21734;DHT22;11029;47.820;10.534;2023-01-04T02:02:06;2.30;85.50
21734;DHT22;11029;47.820;10.534;2023-01-04T02:04:36;2.40;85.00
21734;DHT22;11029;47.820;10.534;2023-01-04T02:07:04;2.40;84.10
21734;DHT22;11029;47.820;10.534;2023-01-04T02:09:32;2.50;84.40
21734;DHT22;11029;47.820;10.534;2023-01-04T02:11:59;2.40;84.10
21734;DHT22;11029;47.820;10.534;2023-01-04T02:14:26;2.40;84.20
21734;DHT22;11029;47.820;10.534;2023-01-04T02:17:06;2.50;84.80
21734;DHT22;11029;47.820;10.534;2023-01-04T02:19:47;2.60;85.00
21734;DHT22;11029;47.820;10.534;2023-01-04T02:31:22;2.80;82.90
21734;DHT22;11029;47.820;10.534;2023-01-04T02:34:15;2.80;83.20
21734;DHT22;11029;47.820;10.534;2023-01-04T02:39:36;2.70;83.40
21734;DHT22;11029;47.820;10.534;2023-01-04T02:42:21;2.60;83.30
21734;DHT22;11029;47.820;10.534;2023-01-04T02:45:00;2.60;83.20
21734;DHT22;11029;47.820;10.534;2023-01-04T02:47:30;2.50;83.50
21734;DHT22;11029;47.820;10.534;2023-01-04T02:50:39;2.50;83.70
21734;DHT22;11029;47.820;10.534;2023-01-04T02:53:18;2.60;84.10
21734;DHT22;11029;47.820;10.534;2023-01-04T02:59:05;2.50;84.10
21734;DHT22;11029;47.820;10.534;2023-01-04T03:01:55;2.50;83.60
21734;DHT22;11029;47.820;10.534;2023-01-04T03:05:13;2.50;83.30
21734;DHT22;11029;47.820;10.534;2023-01-04T03:08:44;2.50;82.90
21734;DHT22;11029;47.820;10.534;2023-01-04T03:11:14;2.40;82.90
21734;DHT22;11029;47.820;10.534;2023-01-04T03:16:54;2.30;83.10
21734;DHT22;11029;47.820;10.534;2023-01-04T03:19:23;2.20;82.70
21734;DHT22;11029;47.820;10.534;2023-01-04T03:22:12;2.10;83.70
21734;DHT22;11029;47.820;10.534;2023-01-04T03:25:00;2.10;84.10
21734;DHT22;11029;47.820;10.534;2023-01-04T03:27:48;2.10;85.90
21734;DHT22;11029;47.820;10.534;2023-01-04T03:30:41;2.20;87.70
21734;DHT22;11029;47.820;10.534;2023-01-04T03:33:27;2.40;88.60
21734;DHT22;11029;47.820;10.534;2023-01-04T03:36:24;2.50;88.70
21734;DHT22;11029;47.820;10.534;2023-01-04T03:39:39;2.60;88.00
21734;DHT22;11029;47.820;10.534;2023-01-04T03:42:51;2.60;87.70
21734;DHT22;11029;47.820;10.534;2023-01-04T03:45:49;2.60;87.90
21734;DHT22;11029;47.820;10.534;2023-01-04T03:48:52;2.80;88.50
21734;DHT22;11029;47.820;10.534;2023-01-04T03:51:27;2.90;88.60
21734;DHT22;11029;47.820;10.534;2023-01-04T03:54:12;3.00;88.80
21734;DHT22;11029;47.820;10.534;2023-01-04T03:56:41;3.00;88.30
21734;DHT22;11029;47.820;10.534;2023-01-04T03:59:10;3.00;87.90
21734;DHT22;11029;47.820;10.534;2023-01-04T04:01:38;3.00;87.60
21734;DHT22;11029;47.820;10.534;2023-01-04T04:04:07;3.00;87.90
21734;DHT22;11029;47.820;10.534;2023-01-04T04:06:52;3.00;87.90
21734;DHT22;11029;47.820;10.534;2023-01-04T04:09:37;3.10;87.80
21734;DHT22;11029;47.820;10.534;2023-01-04T04:12:04;3.10;87.30
21734;DHT22;11029;47.820;10.534;2023-01-04T04:14:31;3.10;86.50
21734;DHT22;11029;47.820;10.534;2023-01-04T04:16:58;3.10;86.00
21734;DHT22;11029;47.820;10.534;2023-01-04T04:19:25;3.10;86.00
21734;DHT22;11029;47.820;10.534;2023-01-04T04:21:51;3.10;86.00
21734;DHT22;11029;47.820;10.534;2023-01-04T04:24:22;3.10;86.10
21734;DHT22;11029;47.820;10.534;2023-01-04T04:26:51;3.10;85.70
21734;DHT22;11029;47.820;10.534;2023-01-04T04:29:20;3.20;86.20
21734;DHT22;11029;47.820;10.534;2023-01-04T04:31:47;3.30;87.10
21734;DHT22;11029;47.820;10.534;2023-01-04T04:34:14;3.40;87.20
21734;DHT22;11029;47.820;10.534;2023-01-04T04:36:41;3.40;87.20
21734;DHT22;11029;47.820;10.534;2023-01-04T04:39:07;3.50;87.60
21734;DHT22;11029;47.820;10.534;2023-01-04T04:41:34;3.60;87.80
21734;DHT22;11029;47.820;10.534;2023-01-04T04:44:12;3.60;88.00
21734;DHT22;11029;47.820;10.534;2023-01-04T04:46:40;3.70;87.90
21734;DHT22;11029;47.820;10.534;2023-01-04T04:49:07;3.70;87.70
21734;DHT22;11029;47.820;10.534;2023-01-04T04:51:34;3.70;87.70
21734;DHT22;11029;47.820;10.534;2023-01-04T04:54:01;3.80;87.70
21734;DHT22;11029;47.820;10.534;2023-01-04T04:56:28;3.80;87.60
21734;DHT22;11029;47.820;10.534;2023-01-04T04:58:55;3.80;87.50
21734;DHT22;11029;47.820;10.534;2023-01-04T05:01:22;3.80;87.50
21734;DHT22;11029;47.820;10.534;2023-01-04T05:03:49;3.90;87.50
21734;DHT22;11029;47.820;10.534;2023-01-04T05:06:16;3.90;87.30
21734;DHT22;11029;47.820;10.534;2023-01-04T05:08:43;3.90;87.20
21734;DHT22;11029;47.820;10.534;2023-01-04T05:11:11;3.90;87.40
21734;DHT22;11029;47.820;10.534;2023-01-04T05:13:38;3.90;87.50
21734;DHT22;11029;47.820;10.534;2023-01-04T05:16:06;3.90;87.20
21734;DHT22;11029;47.820;10.534;2023-01-04T05:18:34;3.90;87.20
21734;DHT22;11029;47.820;10.534;2023-01-04T05:21:01;3.90;87.40
21734;DHT22;11029;47.820;10.534;2023-01-04T05:23:28;3.90;87.50
21734;DHT22;11029;47.820;10.534;2023-01-04T05:25:58;3.90;87.30
21734;DHT22;11029;47.820;10.534;2023-01-04T05:28:25;3.90;87.20
21734;DHT22;11029;47.820;10.534;2023-01-04T05:30:52;3.90;87.00
21734;DHT22;11029;47.820;10.534;2023-01-04T05:33:26;3.80;87.10
21734;DHT22;11029;47.820;10.534;2023-01-04T05:35:54;3.80;87.30
21734;DHT22;11029;47.820;10.534;2023-01-04T05:38:21;3.80;87.30
21734;DHT22;11029;47.820;10.534;2023-01-04T05:40:48;3.80;87.30
21734;DHT22;11029;47.820;10.534;2023-01-04T05:43:17;3.80;87.20
21734;DHT22;11029;47.820;10.534;2023-01-04T05:45:47;3.80;87.00
21734;DHT22;11029;47.820;10.534;2023-01-04T05:48:15;3.80;87.40
21734;DHT22;11029;47.820;10.534;2023-01-04T05:50:42;3.80;87.40
21734;DHT22;11029;47.820;10.534;2023-01-04T05:53:12;3.80;87.30
21734;DHT22;11029;47.820;10.534;2023-01-04T05:55:39;3.80;87.20
21734;DHT22;11029;47.820;10.534;2023-01-04T05:58:06;3.80;87.30
21734;DHT22;11029;47.820;10.534;2023-01-04T06:00:33;3.90;87.30
21734;DHT22;11029;47.820;10.534;2023-01-04T06:02:59;3.90;87.30
21734;DHT22;11029;47.820;10.534;2023-01-04T06:05:26;3.90;87.20
21734;DHT22;11029;47.820;10.534;2023-01-04T06:07:53;3.90;86.90
21734;DHT22;11029;47.820;10.534;2023-01-04T06:10:20;3.90;87.20
21734;DHT22;11029;47.820;10.534;2023-01-04T06:12:47;3.80;87.10
21734;DHT22;11029;47.820;10.534;2023-01-04T06:15:14;3.70;87.40
21734;DHT22;11029;47.820;10.534;2023-01-04T06:17:40;3.70;87.50
21734;DHT22;11029;47.820;10.534;2023-01-04T06:20:08;3.70;87.60
21734;DHT22;11029;47.820;10.534;2023-01-04T06:22:36;3.70;87.50
21734;DHT22;11029;47.820;10.534;2023-01-04T06:25:03;3.70;87.70
21734;DHT22;11029;47.820;10.534;2023-01-04T06:27:30;3.80;87.30
21734;DHT22;11029;47.820;10.534;2023-01-04T06:29:57;3.80;87.30
21734;DHT22;11029;47.820;10.534;2023-01-04T06:32:23;3.80;87.20
21734;DHT22;11029;47.820;10.534;2023-01-04T06:34:50;3.70;87.30
21734;DHT22;11029;47.820;10.534;2023-01-04T06:37:17;3.80;87.40
21734;DHT22;11029;47.820;10.534;2023-01-04T06:39:43;3.70;87.30
21734;DHT22;11029;47.820;10.534;2023-01-04T06:42:10;3.70;87.40
21734;DHT22;11029;47.820;10.534;2023-01-04T06:44:57;3.70;87.40
21734;DHT22;11029;47.820;10.534;2023-01-04T06:47:23;3.70;87.70
21734;DHT22;11029;47.820;10.534;2023-01-04T06:49:50;3.80;87.50
21734;DHT22;11029;47.820;10.534;2023-01-04T06:52:17;3.80;87.70
21734;DHT22;11029;47.820;10.534;2023-01-04T06:54:44;3.80;87.60
21734;DHT22;11029;47.820;10.534;2023-01-04T06:57:11;3.90;87.40
21734;DHT22;11029;47.820;10.534;2023-01-04T06:59:38;3.90;87.40
21734;DHT22;11029;47.820;10.534;2023-01-04T07:02:05;3.90;87.20
21734;DHT22;11029;47.820;10.534;2023-01-04T07:04:32;3.90;87.30
21734;DHT22;11029;47.820;10.534;2023-01-04T07:06:59;3.80;87.10
21734;DHT22;11029;47.820;10.534;2023-01-04T07:09:25;3.80;87.20
21734;DHT22;11029;47.820;10.534;2023-01-04T07:11:52;3.80;87.40
21734;DHT22;11029;47.820;10.534;2023-01-04T07:14:19;3.80;87.30
21734;DHT22;11029;47.820;10.534;2023-01-04T07:16:46;3.80;87.30
21734;DHT22;11029;47.820;10.534;2023-01-04T07:19:13;3.80;87.20
21734;DHT22;11029;47.820;10.534;2023-01-04T07:21:40;3.90;87.20
21734;DHT22;11029;47.820;10.534;2023-01-04T07:24:06;3.90;87.20
21734;DHT22;11029;47.820;10.534;2023-01-04T07:26:34;3.90;87.10
21734;DHT22;11029;47.820;10.534;2023-01-04T07:29:00;3.90;87.10
21734;DHT22;11029;47.820;10.534;2023-01-04T07:31:45;3.90;87.10
21734;DHT22;11029;47.820;10.534;2023-01-04T07:34:13;3.90;87.20
21734;DHT22;11029;47.820;10.534;2023-01-04T07:36:40;3.90;87.10
21734;DHT22;11029;47.820;10.534;2023-01-04T07:39:08;3.90;87.10
21734;DHT22;11029;47.820;10.534;2023-01-04T07:41:39;3.90;86.90
21734;DHT22;11029;47.820;10.534;2023-01-04T07:44:09;3.90;86.90
21734;DHT22;11029;47.820;10.534;2023-01-04T07:46:37;3.90;86.90
21734;DHT22;11029;47.820;10.534;2023-01-04T07:49:04;4.00;86.80
21734;DHT22;11029;47.820;10.534;2023-01-04T07:51:39;4.00;86.60
21734;DHT22;11029;47.820;10.534;2023-01-04T07:54:06;4.00;86.50
21734;DHT22;11029;47.820;10.534;2023-01-04T07:56:33;4.10;86.30
21734;DHT22;11029;47.820;10.534;2023-01-04T07:58:59;4.20;86.10
21734;DHT22;11029;47.820;10.534;2023-01-04T08:01:28;4.30;85.80
21734;DHT22;11029;47.820;10.534;2023-01-04T08:03:54;4.40;85.40
21734;DHT22;11029;47.820;10.534;2023-01-04T08:06:21;4.60;85.00
21734;DHT22;11029;47.820;10.534;2023-01-04T08:08:48;4.70;84.30
21734;DHT22;11029;47.820;10.534;2023-01-04T08:11:16;4.70;83.80
21734;DHT22;11029;47.820;10.534;2023-01-04T08:13:44;4.70;83.60
21734;DHT22;11029;47.820;10.534;2023-01-04T08:16:20;4.80;83.70
21734;DHT22;11029;47.820;10.534;2023-01-04T08:18:51;4.80;83.40
21734;DHT22;11029;47.820;10.534;2023-01-04T08:21:18;4.80;83.10
21734;DHT22;11029;47.820;10.534;2023-01-04T08:23:45;4.80;82.70
21734;DHT22;11029;47.820;10.534;2023-01-04T08:26:13;4.80;82.10
21734;DHT22;11029;47.820;10.534;2023-01-04T08:28:42;4.90;80.40
21734;DHT22;11029;47.820;10.534;2023-01-04T08:31:12;4.90;80.90
21734;DHT22;11029;47.820;10.534;2023-01-04T08:33:41;4.90;80.10
21734;DHT22;11029;47.820;10.534;2023-01-04T08:36:12;5.00;79.60
21734;DHT22;11029;47.820;10.534;2023-01-04T08:38:51;5.00;79.50
21734;DHT22;11029;47.820;10.534;2023-01-04T08:41:26;5.10;79.10
21734;DHT22;11029;47.820;10.534;2023-01-04T08:44:13;5.10;79.80
21734;DHT22;11029;47.820;10.534;2023-01-04T08:46:40;5.20;79.30
21734;DHT22;11029;47.820;10.534;2023-01-04T08:49:07;5.20;79.20
21734;DHT22;11029;47.820;10.534;2023-01-04T08:51:34;5.20;79.40
21734;DHT22;11029;47.820;10.534;2023-01-04T08:54:00;5.20;79.60
21734;DHT22;11029;47.820;10.534;2023-01-04T08:56:27;5.30;79.70
21734;DHT22;11029;47.820;10.534;2023-01-04T08:58:54;5.40;79.30
21734;DHT22;11029;47.820;10.534;2023-01-04T09:01:21;5.30;79.00
21734;DHT22;11029;47.820;10.534;2023-01-04T09:03:48;5.30;79.40
21734;DHT22;11029;47.820;10.534;2023-01-04T09:06:14;5.30;79.60
21734;DHT22;11029;47.820;10.534;2023-01-04T09:08:42;5.40;79.30
21734;DHT22;11029;47.820;10.534;2023-01-04T09:11:14;5.50;78.10
21734;DHT22;11029;47.820;10.534;2023-01-04T09:13:42;5.50;78.30
21734;DHT22;11029;47.820;10.534;2023-01-04T09:16:12;5.50;78.50
21734;DHT22;11029;47.820;10.534;2023-01-04T09:18:39;5.60;77.80
21734;DHT22;11029;47.820;10.534;2023-01-04T09:21:15;5.70;75.70
21734;DHT22;11029;47.820;10.534;2023-01-04T09:23:42;5.80;75.40
21734;DHT22;11029;47.820;10.534;2023-01-04T09:26:12;5.90;74.80
21734;DHT22;11029;47.820;10.534;2023-01-04T09:28:39;6.00;74.20
21734;DHT22;11029;47.820;10.534;2023-01-04T09:31:08;6.00;74.30
21734;DHT22;11029;47.820;10.534;2023-01-04T09:33:36;6.10;73.60
21734;DHT22;11029;47.820;10.534;2023-01-04T09:36:22;6.10;72.40
21734;DHT22;11029;47.820;10.534;2023-01-04T09:38:50;6.10;72.10
21734;DHT22;11029;47.820;10.534;2023-01-04T09:41:29;6.10;72.60
21734;DHT22;11029;47.820;10.534;2023-01-04T09:44:01;6.20;71.60
21734;DHT22;11029;47.820;10.534;2023-01-04T09:49:44;6.20;73.10
21734;DHT22;11029;47.820;10.534;2023-01-04T09:52:42;6.20;72.50
21734;DHT22;11029;47.820;10.534;2023-01-04T09:55:33;6.20;71.90
21734;DHT22;11029;47.820;10.534;2023-01-04T09:58:34;6.30;70.90
21734;DHT22;11029;47.820;10.534;2023-01-04T10:01:11;6.30;70.60
21734;DHT22;11029;47.820;10.534;2023-01-04T10:04:00;6.40;69.10
21734;DHT22;11029;47.820;10.534;2023-01-04T10:06:32;6.40;69.50
21734;DHT22;11029;47.820;10.534;2023-01-04T10:09:03;6.40;70.30
21734;DHT22;11029;47.820;10.534;2023-01-04T10:14:23;6.30;71.60
21734;DHT22;11029;47.820;10.534;2023-01-04T10:17:15;6.30;70.90
21734;DHT22;11029;47.820;10.534;2023-01-04T10:26:28;6.40;69.40
21734;DHT22;11029;47.820;10.534;2023-01-04T10:32:09;6.40;68.50
21734;DHT22;11029;47.820;10.534;2023-01-04T10:34:42;6.40;68.70
21734;DHT22;11029;47.820;10.534;2023-01-04T10:37:34;6.40;69.10
21734;DHT22;11029;47.820;10.534;2023-01-04T10:40:12;6.40;68.50
21734;DHT22;11029;47.820;10.534;2023-01-04T10:45:39;6.50;68.30
21734;DHT22;11029;47.820;10.534;2023-01-04T10:48:25;6.40;68.00
21734;DHT22;11029;47.820;10.534;2023-01-04T10:50:54;6.50;67.20
21734;DHT22;11029;47.820;10.534;2023-01-04T10:53:45;6.50;66.90
21734;DHT22;11029;47.820;10.534;2023-01-04T10:56:17;6.50;66.70
21734;DHT22;11029;47.820;10.534;2023-01-04T10:59:08;6.60;65.60
21734;DHT22;11029;47.820;10.534;2023-01-04T11:01:40;6.60;64.80
21734;DHT22;11029;47.820;10.534;2023-01-04T11:06:59;6.70;64.90
21734;DHT22;11029;47.820;10.534;2023-01-04T11:09:39;6.80;64.70
21734;DHT22;11029;47.820;10.534;2023-01-04T11:12:14;6.80;64.60
21734;DHT22;11029;47.820;10.534;2023-01-04T11:14:43;6.80;64.10
21734;DHT22;11029;47.820;10.534;2023-01-04T11:17:10;6.90;65.00
21734;DHT22;11029;47.820;10.534;2023-01-04T11:19:38;6.90;64.10
21734;DHT22;11029;47.820;10.534;2023-01-04T11:22:14;7.00;64.00
21734;DHT22;11029;47.820;10.534;2023-01-04T11:24:47;6.90;62.50
21734;DHT22;11029;47.820;10.534;2023-01-04T11:27:43;7.10;62.40
21734;DHT22;11029;47.820;10.534;2023-01-04T11:30:24;7.10;61.40
21734;DHT22;11029;47.820;10.534;2023-01-04T11:38:17;7.30;61.20
21734;DHT22;11029;47.820;10.534;2023-01-04T11:43:29;7.40;60.00
21734;DHT22;11029;47.820;10.534;2023-01-04T11:50:57;7.50;57.90
21734;DHT22;11029;47.820;10.534;2023-01-04T11:53:35;7.60;59.10
21734;DHT22;11029;47.820;10.534;2023-01-04T11:56:17;7.60;58.90
21734;DHT22;11029;47.820;10.534;2023-01-04T11:59:03;7.60;58.20
21734;DHT22;11029;47.820;10.534;2023-01-04T12:01:33;7.60;57.10
21734;DHT22;11029;47.820;10.534;2023-01-04T12:04:00;7.60;58.00
21734;DHT22;11029;47.820;10.534;2023-01-04T12:06:52;7.60;57.70
21734;DHT22;11029;47.820;10.534;2023-01-04T12:09:20;7.50;55.50
21734;DHT22;11029;47.820;10.534;2023-01-04T12:11:52;7.50;56.50
21734;DHT22;11029;47.820;10.534;2023-01-04T12:14:31;7.50;55.20
21734;DHT22;11029;47.820;10.534;2023-01-04T12:17:17;7.50;56.00
21734;DHT22;11029;47.820;10.534;2023-01-04T12:19:45;7.40;55.20
21734;DHT22;11029;47.820;10.534;2023-01-04T12:24:48;7.40;56.10
21734;DHT22;11029;47.820;10.534;2023-01-04T12:27:22;7.40;56.70
21734;DHT22;11029;47.820;10.534;2023-01-04T12:29:57;7.40;55.40
21734;DHT22;11029;47.820;10.534;2023-01-04T12:34:52;7.50;54.10
21734;DHT22;11029;47.820;10.534;2023-01-04T12:40:50;7.60;53.90
21734;DHT22;11029;47.820;10.534;2023-01-04T12:43:23;7.60;51.90
21734;DHT22;11029;47.820;10.534;2023-01-04T12:54:58;7.80;52.10
21734;DHT22;11029;47.820;10.534;2023-01-04T12:57:36;7.90;50.30
21734;DHT22;11029;47.820;10.534;2023-01-04T13:00:09;7.90;49.80
21734;DHT22;11029;47.820;10.534;2023-01-04T13:02:41;8.00;49.10
21734;DHT22;11029;47.820;10.534;2023-01-04T13:08:10;8.00;48.30
21734;DHT22;11029;47.820;10.534;2023-01-04T13:10:46;8.00;48.50
21734;DHT22;11029;47.820;10.534;2023-01-04T13:19:22;8.10;46.90
21734;DHT22;11029;47.820;10.534;2023-01-04T13:21:51;8.10;46.30
21734;DHT22;11029;47.820;10.534;2023-01-04T13:24:30;8.10;45.10
21734;DHT22;11029;47.820;10.534;2023-01-04T13:27:07;8.20;45.60
21734;DHT22;11029;47.820;10.534;2023-01-04T13:29:36;8.10;46.70
21734;DHT22;11029;47.820;10.534;2023-01-04T13:37:31;8.20;45.80
21734;DHT22;11029;47.820;10.534;2023-01-04T13:42:49;8.30;45.30
21734;DHT22;11029;47.820;10.534;2023-01-04T13:45:40;8.20;46.20
21734;DHT22;11029;47.820;10.534;2023-01-04T13:48:13;8.20;46.30
21734;DHT22;11029;47.820;10.534;2023-01-04T13:50:42;8.20;45.80
21734;DHT22;11029;47.820;10.534;2023-01-04T13:53:21;8.30;46.80
21734;DHT22;11029;47.820;10.534;2023-01-04T13:55:51;8.30;47.20
21734;DHT22;11029;47.820;10.534;2023-01-04T13:58:21;8.30;46.70
21734;DHT22;11029;47.820;10.534;2023-01-04T14:03:45;8.30;47.50
21734;DHT22;11029;47.820;10.534;2023-01-04T14:06:28;8.30;47.30
21734;DHT22;11029;47.820;10.534;2023-01-04T14:11:41;8.30;48.80
21734;DHT22;11029;47.820;10.534;2023-01-04T14:14:57;8.20;48.80
21734;DHT22;11029;47.820;10.534;2023-01-04T14:17:35;8.30;50.10
21734;DHT22;11029;47.820;10.534;2023-01-04T14:30:54;8.30;49.90
21734;DHT22;11029;47.820;10.534;2023-01-04T14:38:40;8.30;48.60
21734;DHT22;11029;47.820;10.534;2023-01-04T14:43:49;8.30;49.40
21734;DHT22;11029;47.820;10.534;2023-01-04T14:46:20;8.30;49.40
21734;DHT22;11029;47.820;10.534;2023-01-04T14:48:47;8.40;50.00
21734;DHT22;11029;47.820;10.534;2023-01-04T14:51:17;8.40;50.50
21734;DHT22;11029;47.820;10.534;2023-01-04T14:53:44;8.40;51.20
21734;DHT22;11029;47.820;10.534;2023-01-04T14:56:14;8.30;52.20
21734;DHT22;11029;47.820;10.534;2023-01-04T14:58:41;8.20;53.00
21734;DHT22;11029;47.820;10.534;2023-01-04T15:01:09;8.20;54.10
21734;DHT22;11029;47.820;10.534;2023-01-04T15:03:37;8.10;54.60
21734;DHT22;11029;47.820;10.534;2023-01-04T15:06:05;8.20;55.10
21734;DHT22;11029;47.820;10.534;2023-01-04T15:08:32;8.10;55.90
21734;DHT22;11029;47.820;10.534;2023-01-04T15:10:59;8.10;56.30
21734;DHT22;11029;47.820;10.534;2023-01-04T15:13:26;8.10;56.90
21734;DHT22;11029;47.820;10.534;2023-01-04T15:16:00;8.00;57.20
21734;DHT22;11029;47.820;10.534;2023-01-04T15:18:27;7.90;57.90
21734;DHT22;11029;47.820;10.534;2023-01-04T15:20:54;7.80;59.50
21734;DHT22;11029;47.820;10.534;2023-01-04T15:23:20;7.70;61.20
21734;DHT22;11029;47.820;10.534;2023-01-04T15:25:47;7.50;64.10
21734;DHT22;11029;47.820;10.534;2023-01-04T15:28:14;7.20;66.00
21734;DHT22;11029;47.820;10.534;2023-01-04T15:30:42;7.10;68.00
21734;DHT22;11029;47.820;10.534;2023-01-04T15:33:09;6.90;69.60
21734;DHT22;11029;47.820;10.534;2023-01-04T15:35:36;6.80;70.20
21734;DHT22;11029;47.820;10.534;2023-01-04T15:38:03;6.70;70.90
21734;DHT22;11029;47.820;10.534;2023-01-04T15:40:32;6.70;70.50
21734;DHT22;11029;47.820;10.534;2023-01-04T15:43:01;6.60;70.30
21734;DHT22;11029;47.820;10.534;2023-01-04T15:45:38;6.60;70.60
21734;DHT22;11029;47.820;10.534;2023-01-04T15:48:07;6.60;71.10
21734;DHT22;11029;47.820;10.534;2023-01-04T15:50:37;6.50;71.10
21734;DHT22;11029;47.820;10.534;2023-01-04T15:53:05;6.50;71.20
21734;DHT22;11029;47.820;10.534;2023-01-04T15:55:34;6.40;71.70
21734;DHT22;11029;47.820;10.534;2023-01-04T15:58:03;6.40;71.90
21734;DHT22;11029;47.820;10.534;2023-01-04T16:00:30;6.40;72.40
21734;DHT22;11029;47.820;10.534;2023-01-04T16:02:58;6.30;72.80
21734;DHT22;11029;47.820;10.534;2023-01-04T16:05:25;6.30;73.30
21734;DHT22;11029;47.820;10.534;2023-01-04T16:07:52;6.20;73.70
21734;DHT22;11029;47.820;10.534;2023-01-04T16:10:18;6.20;74.10
21734;DHT22;11029;47.820;10.534;2023-01-04T16:12:45;6.20;74.50
21734;DHT22;11029;47.820;10.534;2023-01-04T16:15:22;6.20;75.20
21734;DHT22;11029;47.820;10.534;2023-01-04T16:17:49;6.10;75.70
21734;DHT22;11029;47.820;10.534;2023-01-04T16:20:17;6.10;76.40
21734;DHT22;11029;47.820;10.534;2023-01-04T16:22:44;6.00;76.70
21734;DHT22;11029;47.820;10.534;2023-01-04T16:25:11;6.00;77.10
21734;DHT22;11029;47.820;10.534;2023-01-04T16:27:39;5.90;77.30
21734;DHT22;11029;47.820;10.534;2023-01-04T16:30:11;5.90;77.60
21734;DHT22;11029;47.820;10.534;2023-01-04T16:32:40;5.90;77.60
21734;DHT22;11029;47.820;10.534;2023-01-04T16:35:09;5.90;77.60
21734;DHT22;11029;47.820;10.534;2023-01-04T16:37:37;5.90;77.40
21734;DHT22;11029;47.820;10.534;2023-01-04T16:40:04;5.90;77.10
21734;DHT22;11029;47.820;10.534;2023-01-04T16:42:33;6.00;76.50
21734;DHT22;11029;47.820;10.534;2023-01-04T16:45:00;6.00;76.20
21734;DHT22;11029;47.820;10.534;2023-01-04T16:47:27;6.00;76.20
21734;DHT22;11029;47.820;10.534;2023-01-04T16:49:54;6.00;76.20
21734;DHT22;11029;47.820;10.534;2023-01-04T16:52:21;6.00;75.90
21734;DHT22;11029;47.820;10.534;2023-01-04T16:54:51;6.00;75.90
21734;DHT22;11029;47.820;10.534;2023-01-04T16:57:18;6.10;75.50
21734;DHT22;11029;47.820;10.534;2023-01-04T16:59:44;6.10;74.90
21734;DHT22;11029;47.820;10.534;2023-01-04T17:02:11;6.20;74.70
21734;DHT22;11029;47.820;10.534;2023-01-04T17:04:38;6.20;74.50
21734;DHT22;11029;47.820;10.534;2023-01-04T17:07:05;6.30;74.40
21734;DHT22;11029;47.820;10.534;2023-01-04T17:09:32;6.30;74.30
21734;DHT22;11029;47.820;10.534;2023-01-04T17:11:58;6.30;74.50
21734;DHT22;11029;47.820;10.534;2023-01-04T17:14:46;6.30;74.70
21734;DHT22;11029;47.820;10.534;2023-01-04T17:17:33;6.40;74.90
21734;DHT22;11029;47.820;10.534;2023-01-04T17:19:59;6.40;75.50
21734;DHT22;11029;47.820;10.534;2023-01-04T17:22:26;6.40;76.10
21734;DHT22;11029;47.820;10.534;2023-01-04T17:24:59;6.40;76.80
21734;DHT22;11029;47.820;10.534;2023-01-04T17:27:26;6.40;77.20
21734;DHT22;11029;47.820;10.534;2023-01-04T17:29:53;6.40;77.30
21734;DHT22;11029;47.820;10.534;2023-01-04T17:32:20;6.40;77.20
21734;DHT22;11029;47.820;10.534;2023-01-04T17:34:48;6.40;77.40
21734;DHT22;11029;47.820;10.534;2023-01-04T17:37:15;6.40;77.50
21734;DHT22;11029;47.820;10.534;2023-01-04T17:39:42;6.40;77.60
21734;DHT22;11029;47.820;10.534;2023-01-04T17:42:09;6.50;77.60
21734;DHT22;11029;47.820;10.534;2023-01-04T17:44:35;6.50;77.50
21734;DHT22;11029;47.820;10.534;2023-01-04T17:47:02;6.50;77.30
21734;DHT22;11029;47.820;10.534;2023-01-04T17:49:29;6.50;77.20
21734;DHT22;11029;47.820;10.534;2023-01-04T17:51:58;6.60;77.20